createdAt,value
2022-10-30T00:00:34.308Z,21.83
2022-10-30T00:03:03.779Z,20.27
2022-10-30T00:05:31.712Z,16.77
2022-10-30T00:08:00.206Z,17.73
2022-10-30T00:10:28.076Z,28.30
2022-10-30T00:12:55.738Z,28.67
2022-10-30T00:15:23.350Z,26.67
2022-10-30T00:17:50.977Z,21.40
2022-10-30T00:20:19.994Z,21.60
2022-10-30T00:22:47.654Z,23.43
2022-10-30T00:25:15.275Z,26.47
2022-10-30T00:27:42.820Z,24.53
2022-10-30T00:30:12.135Z,27.27
2022-10-30T00:32:39.675Z,31.97
2022-10-30T00:35:07.862Z,18.33
2022-10-30T00:37:38.262Z,19.53
2022-10-30T00:40:07.444Z,16.10
2022-10-30T00:42:35.102Z,26.17
2022-10-30T00:45:02.725Z,20.03
2022-10-30T00:47:35.614Z,30.27
2022-10-30T00:50:07.721Z,24.53
2022-10-30T00:52:41.649Z,32.20
2022-10-30T00:55:14.844Z,26.27
2022-10-30T00:57:44.914Z,28.13
2022-10-30T01:00:14.140Z,29.97
2022-10-30T01:02:45.135Z,21.70
2022-10-30T01:05:15.806Z,23.20
2022-10-30T01:07:46.426Z,24.70
2022-10-30T01:10:15.642Z,25.07
2022-10-30T01:12:45.376Z,21.80
2022-10-30T01:15:14.501Z,29.57
2022-10-30T01:18:01.363Z,34.70
2022-10-30T01:20:43.755Z,20.13
2022-10-30T01:23:26.244Z,24.03
2022-10-30T01:26:06.773Z,23.87
2022-10-30T01:28:50.808Z,20.70
2022-10-30T01:31:34.611Z,23.40
2022-10-30T01:34:14.953Z,74.70
2022-10-30T01:36:50.740Z,63.50
2022-10-30T01:39:23.577Z,42.37
2022-10-30T01:41:51.216Z,30.00
2022-10-30T01:44:22.381Z,25.93
2022-10-30T01:47:08.149Z,30.63
2022-10-30T01:50:05.117Z,32.70
2022-10-30T01:52:42.968Z,37.33
2022-10-30T01:55:23.908Z,34.83
2022-10-30T01:57:58.362Z,29.53
2022-10-30T02:00:28.098Z,26.67
2022-10-30T02:02:56.369Z,27.50
2022-10-30T02:05:31.266Z,32.90
2022-10-30T02:07:59.078Z,35.73
2022-10-30T02:10:28.906Z,30.70
2022-10-30T02:12:56.780Z,22.03
2022-10-30T02:15:24.514Z,23.67
2022-10-30T02:17:52.135Z,31.30
2022-10-30T02:20:21.542Z,31.80
2022-10-30T02:22:52.973Z,24.80
2022-10-30T02:25:24.034Z,24.37
2022-10-30T02:27:51.600Z,27.23
2022-10-30T02:30:19.308Z,26.03
2022-10-30T02:32:46.893Z,20.30
2022-10-30T02:35:14.638Z,21.37
2022-10-30T02:37:43.498Z,21.80
2022-10-30T02:40:12.306Z,23.03
2022-10-30T02:42:39.890Z,18.03
2022-10-30T02:45:08.531Z,16.67
2022-10-30T02:47:36.138Z,24.20
2022-10-30T02:50:03.698Z,22.20
2022-10-30T02:52:31.345Z,20.60
2022-10-30T02:55:00.268Z,20.20
2022-10-30T02:57:27.835Z,28.93
2022-10-30T02:59:55.447Z,22.23
2022-10-30T03:02:23.087Z,20.50
2022-10-30T03:04:53.693Z,24.23
2022-10-30T03:07:21.224Z,26.20
2022-10-30T03:09:49.116Z,17.70
2022-10-30T03:12:18.007Z,20.27
2022-10-30T03:14:45.575Z,17.80
2022-10-30T03:17:15.717Z,19.30
2022-10-30T03:19:43.224Z,17.73
2022-10-30T03:22:10.932Z,17.23
2022-10-30T03:24:39.032Z,16.93
2022-10-30T03:27:07.343Z,21.13
2022-10-30T03:29:36.232Z,21.77
2022-10-30T03:32:03.840Z,21.03
2022-10-30T03:34:31.403Z,16.80
2022-10-30T03:36:58.948Z,21.57
2022-10-30T03:39:26.526Z,24.27
2022-10-30T03:41:54.155Z,23.43
2022-10-30T03:44:21.724Z,26.60
2022-10-30T03:46:50.621Z,22.00
2022-10-30T03:49:18.236Z,26.40
2022-10-30T03:51:45.813Z,25.97
2022-10-30T03:54:13.433Z,21.07
2022-10-30T03:56:43.156Z,26.23
2022-10-30T03:59:10.734Z,24.70
2022-10-30T04:01:39.143Z,26.90
2022-10-30T04:04:08.187Z,23.33
2022-10-30T04:06:35.772Z,26.40
2022-10-30T04:09:03.417Z,23.53
2022-10-30T04:11:31.103Z,21.63
2022-10-30T04:13:58.700Z,24.80
2022-10-30T04:16:26.334Z,21.27
2022-10-30T04:18:53.937Z,16.90
2022-10-30T04:21:22.814Z,23.03
2022-10-30T04:23:50.448Z,20.90
2022-10-30T04:26:20.558Z,19.23
2022-10-30T04:28:48.866Z,20.83
2022-10-30T04:31:16.466Z,18.00
2022-10-30T04:33:44.280Z,22.27
2022-10-30T04:36:11.896Z,20.00
2022-10-30T04:38:40.781Z,24.50
2022-10-30T04:41:08.703Z,19.90
2022-10-30T04:43:36.340Z,20.33
2022-10-30T04:46:05.704Z,20.80
2022-10-30T04:48:34.968Z,19.63
2022-10-30T04:51:02.571Z,17.00
2022-10-30T04:53:30.187Z,19.83
2022-10-30T04:55:59.139Z,17.40
2022-10-30T04:58:27.013Z,19.37
2022-10-30T05:00:58.973Z,16.57
2022-10-30T05:03:29.781Z,19.37
2022-10-30T05:05:59.261Z,24.37
2022-10-30T05:08:27.123Z,14.27
2022-10-30T05:10:54.994Z,21.13
2022-10-30T05:13:24.114Z,16.03
2022-10-30T05:15:51.908Z,14.67
2022-10-30T05:18:20.104Z,15.17
2022-10-30T05:20:48.192Z,19.50
2022-10-30T05:23:15.926Z,20.10
2022-10-30T05:25:43.418Z,20.33
2022-10-30T05:28:11.862Z,25.77
2022-10-30T05:30:40.740Z,17.93
2022-10-30T05:33:11.183Z,12.03
2022-10-30T05:35:39.738Z,18.80
2022-10-30T05:38:08.371Z,23.27
2022-10-30T05:40:36.470Z,21.27
2022-10-30T05:43:04.544Z,14.23
2022-10-30T05:45:34.698Z,17.87
2022-10-30T05:48:05.780Z,16.27
2022-10-30T05:50:34.049Z,16.97
2022-10-30T05:53:03.980Z,18.13
2022-10-30T05:55:32.068Z,14.07
2022-10-30T05:58:00.619Z,12.47
2022-10-30T06:00:31.035Z,14.27
2022-10-30T06:03:03.363Z,31.03
2022-10-30T06:05:32.680Z,16.17
2022-10-30T06:08:00.440Z,13.17
2022-10-30T06:10:28.406Z,13.27
2022-10-30T06:12:57.600Z,19.53
2022-10-30T06:15:25.758Z,12.30
2022-10-30T06:17:53.646Z,19.27
2022-10-30T06:20:24.489Z,11.60
2022-10-30T06:22:55.972Z,16.50
2022-10-30T06:25:23.611Z,18.83
2022-10-30T06:27:51.888Z,16.17
2022-10-30T06:30:20.160Z,11.60
2022-10-30T06:32:47.694Z,21.43
2022-10-30T06:35:16.421Z,15.70
2022-10-30T06:37:49.093Z,18.50
2022-10-30T06:40:17.378Z,14.20
2022-10-30T06:42:45.717Z,13.07
2022-10-30T06:45:15.498Z,16.47
2022-10-30T06:47:43.755Z,22.47
2022-10-30T06:50:13.782Z,16.40
2022-10-30T06:52:41.358Z,14.10
2022-10-30T06:55:11.720Z,16.20
2022-10-30T06:57:39.390Z,13.93
2022-10-30T07:00:08.941Z,12.30
2022-10-30T07:02:36.495Z,12.30
2022-10-30T07:05:04.213Z,14.80
2022-10-30T07:07:31.876Z,12.87
2022-10-30T07:09:59.459Z,14.03
2022-10-30T07:12:28.465Z,16.80
2022-10-30T07:14:55.990Z,14.40
2022-10-30T07:17:23.554Z,11.97
2022-10-30T07:19:51.049Z,15.17
2022-10-30T07:22:18.877Z,10.00
2022-10-30T07:24:46.459Z,17.40
2022-10-30T07:27:13.996Z,10.20
2022-10-30T07:29:43.278Z,10.03
2022-10-30T07:32:12.984Z,9.57
2022-10-30T07:34:40.575Z,11.83
2022-10-30T07:37:08.435Z,8.50
2022-10-30T07:39:37.126Z,8.00
2022-10-30T07:42:05.179Z,12.03
2022-10-30T07:44:34.002Z,14.30
2022-10-30T07:47:02.976Z,12.10
2022-10-30T07:49:30.517Z,12.47
2022-10-30T07:51:58.090Z,10.27
2022-10-30T07:54:25.666Z,13.23
2022-10-30T07:56:53.298Z,15.40
2022-10-30T07:59:20.938Z,13.93
2022-10-30T08:01:49.793Z,13.40
2022-10-30T08:04:18.922Z,9.73
2022-10-30T08:06:48.997Z,11.60
2022-10-30T08:09:16.658Z,10.93
2022-10-30T08:11:44.180Z,15.93
2022-10-30T08:14:11.823Z,10.23
2022-10-30T08:16:39.400Z,13.67
2022-10-30T08:19:07.031Z,10.90
2022-10-30T08:21:36.776Z,11.70
2022-10-30T08:24:06.701Z,15.33
2022-10-30T08:26:34.278Z,9.77
2022-10-30T08:29:02.024Z,20.30
2022-10-30T08:31:29.668Z,10.87
2022-10-30T08:33:57.297Z,11.20
2022-10-30T08:36:24.929Z,11.77
2022-10-30T08:38:53.949Z,11.07
2022-10-30T08:41:21.573Z,10.07
2022-10-30T08:43:49.099Z,12.10
2022-10-30T08:46:16.975Z,8.87
2022-10-30T08:48:44.612Z,10.63
2022-10-30T08:51:12.383Z,16.60
2022-10-30T08:53:40.126Z,10.87
2022-10-30T08:56:09.719Z,12.23
2022-10-30T08:58:37.327Z,12.53
2022-10-30T09:01:04.994Z,12.67
2022-10-30T09:03:32.757Z,10.53
2022-10-30T09:06:01.226Z,11.70
2022-10-30T09:08:29.605Z,9.70
2022-10-30T09:10:57.619Z,17.80
2022-10-30T09:13:26.854Z,14.00
2022-10-30T09:15:54.509Z,31.40
2022-10-30T09:18:22.048Z,12.20
2022-10-30T09:20:50.059Z,14.03
2022-10-30T09:23:17.747Z,11.33
2022-10-30T09:25:45.383Z,14.73
2022-10-30T09:28:12.968Z,10.87
2022-10-30T09:30:41.990Z,13.37
2022-10-30T09:33:10.618Z,18.87
2022-10-30T09:35:40.570Z,14.70
2022-10-30T09:38:08.091Z,10.47
2022-10-30T09:40:45.784Z,12.80
2022-10-30T09:43:24.921Z,15.70
2022-10-30T09:46:06.921Z,20.23
2022-10-30T09:49:06.287Z,15.53
2022-10-30T09:51:50.205Z,12.13
2022-10-30T09:54:28.469Z,13.50
2022-10-30T09:57:03.410Z,18.27
2022-10-30T09:59:41.973Z,20.73
2022-10-30T10:02:20.825Z,12.87
2022-10-30T10:04:53.252Z,19.20
2022-10-30T10:07:24.115Z,15.50
2022-10-30T10:09:56.529Z,15.43
2022-10-30T10:12:29.381Z,13.07
2022-10-30T10:14:59.018Z,13.83
2022-10-30T10:17:34.564Z,12.17
2022-10-30T10:20:05.600Z,13.23
2022-10-30T10:22:39.970Z,16.60
2022-10-30T10:25:12.949Z,14.70
2022-10-30T10:27:55.628Z,13.23
2022-10-30T10:30:24.802Z,17.40
2022-10-30T10:33:25.810Z,17.80
2022-10-30T10:36:21.107Z,11.80
2022-10-30T10:39:04.104Z,8.07
2022-10-30T10:41:51.054Z,15.60
2022-10-30T10:44:31.561Z,13.83
2022-10-30T10:47:32.126Z,8.60
2022-10-30T10:50:18.267Z,19.00
2022-10-30T10:52:52.511Z,12.30
2022-10-30T10:55:23.274Z,15.23
2022-10-30T10:57:54.792Z,10.70
2022-10-30T11:00:25.730Z,13.10
2022-10-30T11:03:01.787Z,7.23
2022-10-30T11:05:36.176Z,17.00
2022-10-30T11:08:13.566Z,17.20
2022-10-30T11:10:41.303Z,9.50
2022-10-30T11:13:15.297Z,11.80
2022-10-30T11:16:01.985Z,11.40
2022-10-30T11:18:29.890Z,9.90
2022-10-30T11:21:05.441Z,8.03
2022-10-30T11:23:34.826Z,8.27
2022-10-30T11:26:03.413Z,6.97
2022-10-30T11:28:44.603Z,11.63
2022-10-30T11:31:20.232Z,8.53
2022-10-30T11:33:48.684Z,15.60
2022-10-30T11:36:19.861Z,15.63
2022-10-30T11:38:48.757Z,8.90
2022-10-30T11:41:36.293Z,7.13
2022-10-30T11:44:04.970Z,7.87
2022-10-30T11:46:36.630Z,6.37
2022-10-30T11:49:04.547Z,8.93
2022-10-30T11:51:40.050Z,16.50
2022-10-30T11:54:08.849Z,14.93
2022-10-30T11:56:36.521Z,9.93
2022-10-30T11:59:05.867Z,12.23
2022-10-30T12:01:36.869Z,8.60
2022-10-30T12:04:16.791Z,9.13
2022-10-30T12:06:45.804Z,9.90
2022-10-30T12:09:15.819Z,11.70
2022-10-30T12:11:45.680Z,9.50
2022-10-30T12:14:19.822Z,7.13
2022-10-30T12:16:49.627Z,9.23
2022-10-30T12:19:22.045Z,6.70
2022-10-30T12:21:53.862Z,13.30
2022-10-30T12:24:26.207Z,8.33
2022-10-30T12:26:56.617Z,8.90
2022-10-30T12:30:02.728Z,5.80
2022-10-30T12:32:27.103Z,7.43
2022-10-30T12:35:01.129Z,6.80
2022-10-30T12:37:36.443Z,9.70
2022-10-30T12:40:09.408Z,9.43
2022-10-30T12:42:43.387Z,9.23
2022-10-30T12:45:17.275Z,9.33
2022-10-30T12:47:51.711Z,8.53
2022-10-30T12:50:24.204Z,14.60
2022-10-30T12:53:01.322Z,10.30
2022-10-30T12:55:36.032Z,8.23
2022-10-30T12:58:15.981Z,5.70
2022-10-30T13:00:52.993Z,7.43
2022-10-30T13:03:27.141Z,8.87
2022-10-30T13:05:58.064Z,10.07
2022-10-30T13:08:33.135Z,4.30
2022-10-30T13:11:08.271Z,4.63
2022-10-30T13:13:38.758Z,10.00
2022-10-30T13:16:13.039Z,8.90
2022-10-30T13:18:40.764Z,10.20
2022-10-30T13:21:21.890Z,8.03
2022-10-30T13:23:56.536Z,6.30
2022-10-30T13:26:33.014Z,7.20
2022-10-30T13:29:09.055Z,5.87
2022-10-30T13:31:47.614Z,5.43
2022-10-30T13:34:28.018Z,9.87
2022-10-30T13:37:02.125Z,13.40
2022-10-30T13:39:35.619Z,7.90
2022-10-30T13:42:23.028Z,8.53
2022-10-30T13:45:05.385Z,4.63
2022-10-30T13:47:39.113Z,6.70
2022-10-30T13:50:23.697Z,15.47
2022-10-30T13:52:56.194Z,5.83
2022-10-30T13:55:29.518Z,7.67
2022-10-30T13:58:04.081Z,8.60
2022-10-30T14:00:48.310Z,5.67
2022-10-30T14:03:28.470Z,4.73
2022-10-30T14:06:05.683Z,4.53
2022-10-30T14:08:47.896Z,6.77
2022-10-30T14:11:16.834Z,5.37
2022-10-30T14:13:53.860Z,6.47
2022-10-30T14:17:05.488Z,11.40
2022-10-30T14:19:33.088Z,13.83
2022-10-30T14:22:01.194Z,8.37
2022-10-30T14:24:30.975Z,8.63
2022-10-30T14:27:12.210Z,7.50
2022-10-30T14:29:48.666Z,7.10
2022-10-30T14:32:52.845Z,6.43
2022-10-30T14:35:40.985Z,8.50
2022-10-30T14:38:26.695Z,14.00
2022-10-30T14:41:19.397Z,11.20
2022-10-30T14:44:00.065Z,13.50
2022-10-30T14:46:35.468Z,12.30
2022-10-30T14:49:16.748Z,8.07
2022-10-30T14:51:52.775Z,6.93
2022-10-30T14:54:28.623Z,9.63
2022-10-30T14:56:56.159Z,8.00
2022-10-30T14:59:33.773Z,5.17
2022-10-30T15:02:13.228Z,7.83
2022-10-30T15:04:57.500Z,7.43
2022-10-30T15:07:34.123Z,12.87
2022-10-30T15:10:12.640Z,5.30
2022-10-30T15:13:06.711Z,8.20
2022-10-30T15:15:36.879Z,7.63
2022-10-30T15:18:10.537Z,7.27
2022-10-30T15:20:41.985Z,7.90
2022-10-30T15:23:13.265Z,11.80
2022-10-30T15:25:47.651Z,9.33
2022-10-30T15:28:19.445Z,13.17
2022-10-30T15:31:02.576Z,9.80
2022-10-30T15:33:32.559Z,11.27
2022-10-30T15:36:00.955Z,12.50
2022-10-30T15:38:28.578Z,7.30
2022-10-30T15:40:59.081Z,13.03
2022-10-30T15:43:30.631Z,10.73
2022-10-30T15:45:58.264Z,5.80
2022-10-30T15:48:31.096Z,9.03
2022-10-30T15:51:03.312Z,7.70
2022-10-30T15:53:39.329Z,5.20
2022-10-30T15:56:13.595Z,9.30
2022-10-30T15:58:49.635Z,8.47
2022-10-30T16:01:26.150Z,10.83
2022-10-30T16:03:55.782Z,10.53
2022-10-30T16:06:25.947Z,10.50
2022-10-30T16:08:56.212Z,10.30
2022-10-30T16:11:25.342Z,8.20
2022-10-30T16:13:53.522Z,9.40
2022-10-30T16:16:33.573Z,7.73
2022-10-30T16:19:05.560Z,13.47
2022-10-30T16:21:35.074Z,9.20
2022-10-30T16:24:05.130Z,10.73
2022-10-30T16:26:34.824Z,10.80
2022-10-30T16:29:10.101Z,16.00
2022-10-30T16:31:38.687Z,11.03
2022-10-30T16:34:14.340Z,18.27
2022-10-30T16:36:42.682Z,17.70
2022-10-30T16:39:15.176Z,12.63
2022-10-30T16:41:43.929Z,10.20
2022-10-30T16:44:18.467Z,18.37
2022-10-30T16:46:52.671Z,12.53
2022-10-30T16:49:24.401Z,12.10
2022-10-30T16:51:59.270Z,14.20
2022-10-30T16:54:31.457Z,14.07
2022-10-30T16:57:00.887Z,10.43
2022-10-30T16:59:40.018Z,14.80
2022-10-30T17:02:16.515Z,10.80
2022-10-30T17:04:51.315Z,13.30
2022-10-30T17:07:24.554Z,19.20
2022-10-30T17:09:55.541Z,10.17
2022-10-30T17:12:25.050Z,14.00
2022-10-30T17:14:55.174Z,19.00
2022-10-30T17:17:28.235Z,18.67
2022-10-30T17:20:03.255Z,17.50
2022-10-30T17:22:31.843Z,12.70
2022-10-30T17:25:00.687Z,15.33
2022-10-30T17:27:47.058Z,17.47
2022-10-30T17:30:31.796Z,22.80
2022-10-30T17:32:59.690Z,17.60
2022-10-30T17:35:29.021Z,12.50
2022-10-30T17:37:59.790Z,19.27
2022-10-30T17:40:30.571Z,24.97
2022-10-30T17:42:58.175Z,18.83
2022-10-30T17:45:25.768Z,20.20
2022-10-30T17:47:53.476Z,22.50
2022-10-30T17:50:21.015Z,21.93
2022-10-30T17:52:50.089Z,23.70
2022-10-30T17:55:30.331Z,20.83
2022-10-30T17:57:57.892Z,18.90
2022-10-30T18:00:26.869Z,20.80
2022-10-30T18:02:54.663Z,24.53
2022-10-30T18:05:26.313Z,20.77
2022-10-30T18:07:55.259Z,24.53
2022-10-30T18:10:26.394Z,25.53
2022-10-30T18:12:54.025Z,16.97
2022-10-30T18:15:28.877Z,27.07
2022-10-30T18:17:56.747Z,22.73
2022-10-30T18:20:24.937Z,20.80
2022-10-30T18:22:53.463Z,22.83
2022-10-30T18:25:24.805Z,21.40
2022-10-30T18:27:52.676Z,17.23
2022-10-30T18:30:21.222Z,22.20
2022-10-30T18:32:49.657Z,21.07
2022-10-30T18:35:30.164Z,20.53
2022-10-30T18:37:59.028Z,24.70
2022-10-30T18:40:29.124Z,28.30
2022-10-30T18:42:57.370Z,17.27
2022-10-30T18:45:27.128Z,22.70
2022-10-30T18:47:57.595Z,27.40
2022-10-30T18:50:25.578Z,30.23
2022-10-30T18:52:54.632Z,27.30
2022-10-30T18:55:24.278Z,24.97
2022-10-30T18:57:53.785Z,23.33
2022-10-30T19:00:25.038Z,22.97
2022-10-30T19:02:53.161Z,19.93
2022-10-30T19:05:27.561Z,27.80
2022-10-30T19:07:57.812Z,25.87
2022-10-30T19:10:26.885Z,27.87
2022-10-30T19:13:11.910Z,25.33
2022-10-30T19:15:41.650Z,29.50
2022-10-30T19:18:09.207Z,27.40
2022-10-30T19:20:58.862Z,24.20
2022-10-30T19:23:26.353Z,26.43
2022-10-30T19:25:54.739Z,21.00
2022-10-30T19:28:25.621Z,29.20
2022-10-30T19:30:54.695Z,22.27
2022-10-30T19:33:24.865Z,38.50
2022-10-30T19:35:56.435Z,26.83
2022-10-30T19:38:24.318Z,22.40
2022-10-30T19:40:53.647Z,20.77
2022-10-30T19:43:21.464Z,20.80
2022-10-30T19:45:55.538Z,31.33
2022-10-30T19:48:48.035Z,27.03
2022-10-30T19:51:11.843Z,26.20
2022-10-30T19:53:39.722Z,25.33
2022-10-30T19:56:09.422Z,25.23
2022-10-30T19:58:37.113Z,28.50
2022-10-30T20:01:06.368Z,33.17
2022-10-30T20:03:34.372Z,29.67
2022-10-30T20:06:02.306Z,22.07
2022-10-30T20:08:32.032Z,26.87
2022-10-30T20:11:00.810Z,23.43
2022-10-30T20:13:29.275Z,21.13
2022-10-30T20:15:58.169Z,22.50
2022-10-30T20:18:30.488Z,25.50
2022-10-30T20:20:59.618Z,20.30
2022-10-30T20:23:27.569Z,22.57
2022-10-30T20:25:58.499Z,25.07
2022-10-30T20:28:29.152Z,19.87
2022-10-30T20:30:57.113Z,25.10
2022-10-30T20:33:26.938Z,23.97
2022-10-30T20:35:56.012Z,25.03
2022-10-30T20:38:26.092Z,21.07
2022-10-30T20:40:54.401Z,22.33
2022-10-30T20:43:25.973Z,23.87
2022-10-30T20:45:53.547Z,21.57
2022-10-30T20:48:21.206Z,23.80
2022-10-30T20:50:53.820Z,24.23
2022-10-30T20:53:21.764Z,23.80
2022-10-30T20:55:49.917Z,20.23
2022-10-30T20:58:17.487Z,20.30
2022-10-30T21:00:48.332Z,26.83
2022-10-30T21:03:16.308Z,23.90
2022-10-30T21:05:45.872Z,27.07
2022-10-30T21:08:15.228Z,15.00
2022-10-30T21:10:43.400Z,18.67
2022-10-30T21:13:11.959Z,20.33
2022-10-30T21:15:40.830Z,18.80
2022-10-30T21:18:08.805Z,21.60
2022-10-30T21:20:37.542Z,19.97
2022-10-30T21:23:05.750Z,18.83
2022-10-30T21:25:34.730Z,21.77
2022-10-30T21:28:03.043Z,17.90
2022-10-30T21:30:33.292Z,17.03
2022-10-30T21:33:04.515Z,22.47
2022-10-30T21:35:32.385Z,17.73
2022-10-30T21:38:02.479Z,20.73
2022-10-30T21:40:30.532Z,19.07
2022-10-30T21:43:03.055Z,19.77
2022-10-30T21:45:32.102Z,22.17
2022-10-30T21:47:59.805Z,21.53
2022-10-30T21:50:27.499Z,20.63
2022-10-30T21:52:55.196Z,18.00
2022-10-30T21:55:23.168Z,28.17
2022-10-30T21:57:50.758Z,23.27
2022-10-30T22:00:19.971Z,18.80
2022-10-30T22:02:47.585Z,21.70
2022-10-30T22:05:15.173Z,23.00
2022-10-30T22:07:44.957Z,20.20
2022-10-30T22:10:12.571Z,29.00
2022-10-30T22:12:41.019Z,21.07
2022-10-30T22:15:10.025Z,19.67
2022-10-30T22:17:39.127Z,26.53
2022-10-30T22:20:09.816Z,26.40
2022-10-30T22:22:37.781Z,23.63
2022-10-30T22:25:06.421Z,26.57
2022-10-30T22:27:34.066Z,16.90
2022-10-30T22:30:01.666Z,22.77
2022-10-30T22:32:29.156Z,24.43
2022-10-30T22:34:58.810Z,17.70
2022-10-30T22:37:26.434Z,16.67
2022-10-30T22:39:54.087Z,18.13
2022-10-30T22:42:21.775Z,20.37
2022-10-30T22:44:49.550Z,31.83
2022-10-30T22:47:18.101Z,20.20
2022-10-30T22:49:45.854Z,28.60
2022-10-30T22:52:14.729Z,26.23
2022-10-30T22:54:42.318Z,21.43
2022-10-30T22:57:09.940Z,23.93
2022-10-30T22:59:37.522Z,20.50
2022-10-30T23:02:05.199Z,26.20
2022-10-30T23:04:32.909Z,19.50
2022-10-30T23:07:00.533Z,23.20
2022-10-30T23:09:29.511Z,18.33
2022-10-30T23:11:57.135Z,20.83
2022-10-30T23:14:24.846Z,23.37
2022-10-30T23:16:52.547Z,20.13
2022-10-30T23:19:20.137Z,23.07
2022-10-30T23:21:47.979Z,16.83
2022-10-30T23:24:15.585Z,13.63
2022-10-30T23:26:44.593Z,20.63
2022-10-30T23:29:12.301Z,12.27
2022-10-30T23:31:42.333Z,17.27
2022-10-30T23:34:12.130Z,11.10
2022-10-30T23:36:40.543Z,19.90
2022-10-30T23:39:11.401Z,16.40
2022-10-30T23:41:39.118Z,17.40
2022-10-30T23:44:12.069Z,18.50
2022-10-30T23:46:39.682Z,16.00
2022-10-30T23:49:07.719Z,14.87
2022-10-30T23:51:35.394Z,15.30
2022-10-30T23:54:03.022Z,14.77
2022-10-30T23:56:31.167Z,19.80
2022-10-30T23:58:58.776Z,11.00
